createdAt,value
2023-04-02T00:02:32.085Z,51.82
2023-04-02T00:07:34.509Z,52.04
2023-04-02T00:12:37.175Z,51.62
2023-04-02T00:17:39.473Z,53.06
2023-04-02T00:22:45.284Z,54.66
2023-04-02T00:27:48.020Z,55.78
2023-04-02T00:32:51.891Z,55.80
2023-04-02T00:37:55.069Z,55.57
2023-04-02T00:43:00.280Z,55.89
2023-04-02T00:48:21.407Z,56.04
2023-04-02T00:53:30.705Z,56.21
2023-04-02T00:58:36.942Z,56.20
2023-04-02T01:03:39.349Z,56.30
2023-04-02T01:08:44.570Z,56.38
2023-04-02T01:13:54.656Z,56.18
2023-04-02T01:19:06.421Z,56.31
2023-04-02T01:24:12.584Z,56.06
2023-04-02T01:29:20.717Z,56.18
2023-04-02T01:34:26.654Z,55.49
2023-04-02T01:39:48.055Z,55.05
2023-04-02T01:44:54.783Z,54.72
2023-04-02T01:50:25.687Z,54.97
2023-04-02T01:55:34.800Z,55.46
2023-04-02T02:00:43.832Z,55.80
2023-04-02T02:05:46.918Z,55.63
2023-04-02T02:10:51.135Z,55.66
2023-04-02T02:15:58.308Z,55.66
2023-04-02T02:21:05.607Z,55.31
2023-04-02T02:26:08.407Z,55.40
2023-04-02T02:31:22.920Z,55.74
2023-04-02T02:36:57.007Z,55.70
2023-04-02T02:42:22.123Z,55.47
2023-04-02T02:47:31.143Z,55.41
2023-04-02T02:52:38.772Z,55.36
2023-04-02T02:57:54.316Z,55.52
2023-04-02T03:02:59.046Z,55.50
2023-04-02T03:08:10.008Z,55.42
2023-04-02T03:13:15.397Z,55.22
2023-04-02T03:18:33.341Z,55.80
2023-04-02T03:23:49.345Z,55.57
2023-04-02T03:29:03.338Z,55.05
2023-04-02T03:34:33.794Z,55.12
2023-04-02T03:39:45.867Z,54.92
2023-04-02T03:45:10.715Z,55.40
2023-04-02T03:50:21.848Z,54.94
2023-04-02T03:55:32.872Z,55.14
2023-04-02T04:00:44.953Z,54.57
2023-04-02T04:06:00.923Z,54.17
2023-04-02T04:11:10.604Z,54.16
2023-04-02T04:16:19.448Z,54.09
2023-04-02T04:21:37.778Z,53.83
2023-04-02T04:27:11.867Z,54.13
2023-04-02T04:32:32.610Z,54.04
2023-04-02T04:37:43.826Z,53.98
2023-04-02T04:42:53.277Z,53.75
2023-04-02T04:48:01.792Z,53.95
2023-04-02T04:53:08.232Z,53.55
2023-04-02T04:58:25.565Z,53.91
2023-04-02T05:03:38.225Z,52.60
2023-04-02T05:08:47.853Z,52.51
2023-04-02T05:13:58.113Z,53.73
2023-04-02T05:19:10.593Z,53.32
2023-04-02T05:24:28.372Z,54.02
2023-04-02T05:29:37.749Z,54.76
2023-04-02T05:34:45.826Z,53.66
2023-04-02T05:39:55.925Z,53.72
2023-04-02T05:45:05.466Z,53.90
2023-04-02T05:50:07.881Z,55.03
2023-04-02T05:55:43.944Z,54.90
2023-04-02T06:01:00.111Z,54.09
2023-04-02T06:06:14.701Z,53.71
2023-04-02T06:11:24.133Z,53.60
2023-04-02T06:16:31.083Z,52.80
2023-04-02T06:21:33.487Z,52.83
2023-04-02T06:26:48.202Z,51.82
2023-04-02T06:31:56.794Z,51.64
2023-04-02T06:37:38.088Z,51.35
2023-04-02T06:43:09.249Z,51.34
2023-04-02T06:48:32.563Z,50.80
2023-04-02T06:53:40.297Z,50.25
2023-04-02T06:58:47.208Z,48.87
2023-04-02T07:03:50.625Z,48.02
2023-04-02T07:09:05.207Z,46.86
2023-04-02T07:14:12.376Z,45.96
2023-04-02T07:19:23.212Z,45.51
2023-04-02T07:24:30.207Z,43.93
2023-04-02T07:29:32.511Z,43.53
2023-04-02T07:34:34.818Z,42.51
2023-04-02T07:39:40.173Z,41.58
2023-04-02T07:44:43.089Z,40.74
2023-04-02T07:49:45.542Z,40.17
2023-04-02T07:54:48.062Z,39.29
2023-04-02T07:59:51.087Z,38.79
2023-04-02T08:04:53.482Z,37.63
2023-04-02T08:09:55.818Z,37.07
2023-04-02T08:14:58.267Z,36.74
2023-04-02T08:20:04.727Z,36.11
2023-04-02T08:25:07.451Z,35.72
2023-04-02T08:30:12.902Z,35.40
2023-04-02T08:35:17.301Z,35.06
2023-04-02T08:40:41.942Z,34.99
2023-04-02T08:46:35.733Z,34.80
2023-04-02T08:51:38.552Z,34.08
2023-04-02T08:56:47.502Z,34.00
2023-04-02T09:02:00.552Z,33.76
2023-04-02T09:07:04.633Z,33.17
2023-04-02T09:12:16.617Z,32.40
2023-04-02T09:17:28.185Z,31.17
2023-04-02T09:22:33.188Z,30.32
2023-04-02T09:27:36.953Z,30.33
2023-04-02T09:32:51.453Z,30.32
2023-04-02T09:38:33.259Z,30.05
2023-04-02T09:43:40.121Z,30.63
2023-04-02T09:48:53.453Z,30.33
2023-04-02T09:54:04.573Z,30.57
2023-04-02T09:59:16.926Z,30.34
2023-04-02T10:04:47.323Z,30.28
2023-04-02T10:09:58.906Z,30.19
2023-04-02T10:15:03.590Z,30.30
2023-04-02T10:20:17.948Z,30.35
2023-04-02T10:25:24.922Z,30.01
2023-04-02T10:30:35.999Z,30.18
2023-04-02T10:36:05.127Z,29.78
2023-04-02T10:41:21.479Z,29.59
2023-04-02T10:46:53.051Z,29.86
2023-04-02T10:51:55.399Z,30.62
2023-04-02T10:57:06.993Z,30.30
2023-04-02T11:02:36.721Z,30.68
2023-04-02T11:07:52.613Z,30.66
2023-04-02T11:13:23.103Z,31.50
2023-04-02T11:18:36.083Z,31.70
2023-04-02T11:24:01.786Z,31.61
2023-04-02T11:29:15.949Z,32.37
2023-04-02T11:35:03.050Z,32.77
2023-04-02T11:40:16.734Z,33.45
2023-04-02T11:45:25.246Z,33.46
2023-04-02T11:50:42.162Z,33.55
2023-04-02T11:55:44.499Z,34.64
2023-04-02T12:01:05.782Z,34.68
2023-04-02T12:06:29.467Z,35.29
2023-04-02T12:11:40.663Z,35.30
2023-04-02T12:16:43.082Z,35.79
2023-04-02T12:21:48.898Z,36.22
2023-04-02T12:27:16.578Z,36.14
2023-04-02T12:32:30.012Z,36.11
2023-04-02T12:37:32.869Z,36.60
2023-04-02T12:42:37.329Z,36.57
2023-04-02T12:47:45.432Z,36.68
2023-04-02T12:52:53.540Z,36.99
2023-04-02T12:57:57.670Z,37.45
2023-04-02T13:02:59.920Z,37.49
2023-04-02T13:08:03.675Z,37.85
2023-04-02T13:13:06.912Z,38.27
2023-04-02T13:18:20.737Z,38.72
2023-04-02T13:23:31.975Z,38.67
2023-04-02T13:28:34.352Z,39.09
2023-04-02T13:33:37.350Z,39.97
2023-04-02T13:38:39.727Z,40.25
2023-04-02T13:43:42.113Z,40.16
2023-04-02T13:48:44.470Z,40.46
2023-04-02T13:53:54.380Z,40.75
2023-04-02T13:58:56.785Z,40.82
2023-04-02T14:03:59.448Z,41.66
2023-04-02T14:09:14.286Z,42.00
2023-04-02T14:15:03.631Z,41.60
2023-04-02T14:20:28.869Z,42.27
2023-04-02T14:25:40.285Z,42.61
2023-04-02T14:31:07.850Z,43.20
2023-04-02T14:36:18.783Z,43.22
2023-04-02T14:42:02.255Z,43.55
2023-04-02T14:47:26.191Z,43.46
2023-04-02T14:52:33.904Z,44.32
2023-04-02T14:57:45.034Z,44.54
2023-04-02T15:03:06.503Z,44.30
2023-04-02T15:08:21.118Z,44.92
2023-04-02T15:13:31.301Z,44.89
2023-04-02T15:18:33.726Z,45.24
2023-04-02T15:23:51.299Z,45.08
2023-04-02T15:29:07.570Z,45.28
2023-04-02T15:34:58.172Z,46.09
2023-04-02T15:40:25.653Z,46.46
2023-04-02T15:45:59.009Z,46.94
2023-04-02T15:51:13.651Z,47.17
2023-04-02T15:56:39.063Z,47.62
2023-04-02T16:01:53.660Z,47.90
2023-04-02T16:07:28.209Z,48.30
2023-04-02T16:12:33.695Z,48.83
2023-04-02T16:17:48.888Z,49.05
2023-04-02T16:23:01.173Z,49.33
2023-04-02T16:28:12.887Z,49.52
2023-04-02T16:33:20.119Z,49.85
2023-04-02T16:38:46.635Z,50.34
2023-04-02T16:44:07.910Z,50.27
2023-04-02T16:49:48.652Z,50.70
2023-04-02T16:55:12.833Z,51.26
2023-04-02T17:00:56.498Z,51.36
2023-04-02T17:06:07.184Z,51.69
2023-04-02T17:11:21.693Z,51.85
2023-04-02T17:16:42.100Z,52.35
2023-04-02T17:21:48.963Z,52.59
2023-04-02T17:26:55.306Z,52.51
2023-04-02T17:32:01.739Z,53.59
2023-04-02T17:37:43.036Z,53.84
2023-04-02T17:42:57.214Z,53.82
2023-04-02T17:48:13.052Z,53.97
2023-04-02T17:53:22.010Z,53.98
2023-04-02T17:58:24.292Z,54.21
2023-04-02T18:03:50.827Z,54.07
2023-04-02T18:09:29.346Z,54.39
2023-04-02T18:15:16.160Z,54.90
2023-04-02T18:20:21.339Z,54.68
2023-04-02T18:25:29.640Z,55.27
2023-04-02T18:30:56.176Z,54.94
2023-04-02T18:36:19.856Z,54.36
2023-04-02T18:41:22.112Z,54.86
2023-04-02T18:46:50.716Z,55.58
2023-04-02T18:51:59.204Z,55.68
2023-04-02T18:57:10.430Z,56.13
2023-04-02T19:02:41.846Z,55.68
2023-04-02T19:07:47.286Z,55.59
2023-04-02T19:12:49.532Z,56.34
2023-04-02T19:18:30.706Z,56.77
2023-04-02T19:24:01.131Z,57.44
2023-04-02T19:29:06.450Z,57.13
2023-04-02T19:34:24.913Z,57.22
2023-04-02T19:39:39.851Z,57.92
2023-04-02T19:44:47.419Z,57.60
2023-04-02T19:49:49.956Z,57.98
2023-04-02T19:54:52.588Z,57.63
2023-04-02T19:59:54.930Z,57.89
2023-04-02T20:04:57.431Z,57.25
2023-04-02T20:09:59.681Z,57.53
2023-04-02T20:15:02.110Z,58.17
2023-04-02T20:20:06.840Z,58.33
2023-04-02T20:25:09.342Z,58.19
2023-04-02T20:30:12.156Z,58.31
2023-04-02T20:35:14.548Z,58.46
2023-04-02T20:40:16.947Z,58.72
2023-04-02T20:45:19.533Z,59.23
2023-04-02T20:50:22.073Z,59.60
2023-04-02T20:55:24.377Z,59.83
2023-04-02T21:00:26.694Z,59.97
2023-04-02T21:05:29.092Z,60.29
2023-04-02T21:10:31.366Z,60.51
2023-04-02T21:15:34.178Z,60.45
2023-04-02T21:20:36.724Z,61.47
2023-04-02T21:25:39.025Z,61.09
2023-04-02T21:30:41.534Z,61.34
2023-04-02T21:35:43.964Z,61.75
2023-04-02T21:40:46.232Z,61.88
2023-04-02T21:45:48.509Z,61.87
2023-04-02T21:50:50.812Z,62.20
2023-04-02T21:56:01.487Z,62.14
2023-04-02T22:01:07.135Z,62.77
2023-04-02T22:06:14.230Z,62.92
2023-04-02T22:11:19.414Z,62.64
2023-04-02T22:16:24.759Z,62.88
2023-04-02T22:21:27.766Z,63.12
2023-04-02T22:26:31.477Z,62.93
2023-04-02T22:31:35.364Z,63.39
2023-04-02T22:36:37.912Z,63.24
2023-04-02T22:41:40.268Z,63.47
2023-04-02T22:46:42.625Z,64.03
2023-04-02T22:51:45.676Z,63.04
2023-04-02T22:56:48.098Z,63.40
2023-04-02T23:01:50.611Z,63.55
2023-04-02T23:06:53.253Z,63.42
2023-04-02T23:11:55.865Z,63.64
2023-04-02T23:16:58.152Z,64.21
2023-04-02T23:22:00.502Z,64.32
2023-04-02T23:27:03.305Z,64.28
2023-04-02T23:32:06.129Z,64.15
2023-04-02T23:37:08.868Z,64.13
2023-04-02T23:42:12.128Z,64.09
2023-04-02T23:47:14.460Z,64.45
2023-04-02T23:52:16.768Z,64.32
2023-04-02T23:57:19.541Z,63.83
